Time;durP1;ratioP1;P1;durP2;ratioP2;P2;SDS_P1;SDS_P2;PMS_P1;PMS_P2;Temp;Humidity;BMP_temperature;BMP_pressure;BME280_temperature;BME280_humidity;BME280_pressure;Samples;Min_cycle;Max_cycle;Signal;HPM_P1;HPM_P2
2023/06/29 00:04:57;;;;;;;2.50;1.60;;;;;;;20.55;54.04;100373.22;10245669;28;20043;-62
2023/06/29 00:10:00;;;;;;;4.13;1.33;;;;;;;20.53;53.85;100365.28;10242378;28;20074;-61
2023/06/29 00:15:01;;;;;;;2.60;1.25;;;;;;;20.50;53.89;100363.03;10245434;28;20055;-63
2023/06/29 00:20:04;;;;;;;3.70;1.20;;;;;;;20.35;54.32;100362.72;10250320;28;20046;-63
2023/06/29 00:25:10;;;;;;;3.60;1.40;;;;;;;20.08;55.08;100362.38;10245215;28;20062;-63
2023/06/29 00:30:13;;;;;;;1.85;1.40;;;;;;;20.12;54.79;100364.41;10242264;28;20058;-63
2023/06/29 00:35:14;;;;;;;2.55;1.08;;;;;;;20.15;55.07;100361.19;10242341;28;20062;-62
2023/06/29 00:40:16;;;;;;;5.10;1.50;;;;;;;20.06;55.22;100359.06;10240829;28;20672;-63
2023/06/29 00:45:17;;;;;;;3.88;1.52;;;;;;;19.84;55.88;100356.94;10244311;28;20047;-63
2023/06/29 00:50:21;;;;;;;2.47;1.30;;;;;;;19.77;56.17;100364.44;10244649;28;20054;-62
2023/06/29 00:55:23;;;;;;;5.07;1.50;;;;;;;19.82;55.98;100356.34;10240463;28;20040;-63
2023/06/29 01:00:24;;;;;;;2.10;1.27;;;;;;;19.83;56.19;100358.03;10246320;28;20150;-62
2023/06/29 01:05:33;;;;;;;5.18;1.67;;;;;;;19.84;55.95;100348.75;10246707;28;20066;-63
2023/06/29 01:10:35;;;;;;;1.88;1.20;;;;;;;19.82;56.13;100356.34;10238044;28;20133;-63
2023/06/29 01:15:39;;;;;;;4.32;1.23;;;;;;;19.71;56.40;100352.56;10220891;28;20043;-63
2023/06/29 01:20:41;;;;;;;1.70;1.30;;;;;;;19.72;56.48;100351.47;10243914;28;20122;-63
2023/06/29 01:25:43;;;;;;;3.15;1.40;;;;;;;19.64;56.70;100349.06;10252831;28;20047;-63
2023/06/29 01:30:49;;;;;;;3.08;1.58;;;;;;;19.59;56.64;100352.53;10250691;28;20146;-63
2023/06/29 01:35:56;;;;;;;2.33;1.77;;;;;;;19.55;56.90;100350.47;10249324;28;20055;-62
2023/06/29 01:41:00;;;;;;;;;;;;;;;19.49;56.38;100348.69;10230650;28;20097;-62
2023/06/29 01:46:04;;;;;;;3.65;1.15;;;;;;;19.44;56.59;100340.41;10252377;28;20374;-63
2023/06/29 01:51:07;;;;;;;3.10;1.02;;;;;;;19.36;57.00;100341.59;10246159;28;20099;-62
2023/06/29 01:56:08;;;;;;;7.82;1.25;;;;;;;19.30;57.00;100343.34;10248668;28;20049;-63
2023/06/29 02:01:09;;;;;;;4.30;1.13;;;;;;;19.20;57.43;100343.91;10256700;28;20088;-63
2023/06/29 02:06:11;;;;;;;4.10;1.40;;;;;;;19.15;57.50;100342.94;10251749;28;20055;-63
2023/06/29 02:11:12;;;;;;;4.15;1.40;;;;;;;19.04;57.70;100341.88;10244826;28;20058;-64
2023/06/29 02:16:14;;;;;;;4.38;1.83;;;;;;;18.89;58.15;100349.63;10250694;28;20055;-63
2023/06/29 02:21:16;;;;;;;4.20;1.85;;;;;;;18.75;58.49;100343.50;10247373;28;20053;-61
2023/06/29 02:26:17;;;;;;;3.30;1.88;;;;;;;18.78;58.45;100343.03;10246566;28;20047;-62
2023/06/29 02:31:18;;;;;;;3.53;1.35;;;;;;;18.78;58.50;100340.31;10246662;28;20054;-61
2023/06/29 02:36:21;;;;;;;4.43;1.40;;;;;;;18.73;58.60;100340.16;10244723;28;20079;-62
2023/06/29 02:41:23;;;;;;;3.25;1.80;;;;;;;18.68;58.87;100337.28;10248278;28;20047;-62
2023/06/29 02:46:24;;;;;;;1.63;1.17;;;;;;;18.64;58.87;100326.03;10249581;28;20699;-62
2023/06/29 02:51:26;;;;;;;4.72;1.40;;;;;;;18.57;59.22;100328.84;10244958;28;20055;-62
2023/06/29 02:56:27;;;;;;;5.63;1.70;;;;;;;18.57;59.24;100330.75;10246608;28;20051;-62
2023/06/29 03:01:29;;;;;;;4.38;2.08;;;;;;;18.43;59.60;100330.91;10244714;28;20057;-62
2023/06/29 03:06:30;;;;;;;5.85;2.15;;;;;;;18.38;59.85;100329.91;10247265;28;20154;-62
2023/06/29 03:11:32;;;;;;;3.30;1.52;;;;;;;18.45;59.50;100322.50;10246207;28;20509;-61
2023/06/29 03:16:33;;;;;;;4.85;1.75;;;;;;;18.48;59.41;100330.22;10253480;28;20073;-67
2023/06/29 03:21:35;;;;;;;4.05;1.70;;;;;;;18.54;59.48;100323.03;10243060;28;20063;-67
2023/06/29 03:26:36;;;;;;;3.90;1.98;;;;;;;18.56;59.20;100308.13;10244030;28;20518;-67
2023/06/29 03:31:38;;;;;;;2.63;1.60;;;;;;;18.51;59.43;100302.53;10242208;28;20125;-65
2023/06/29 03:36:39;;;;;;;4.93;2.25;;;;;;;18.51;59.46;100305.25;10251884;28;20047;-66
2023/06/29 03:41:40;;;;;;;5.10;1.98;;;;;;;18.46;59.70;100309.72;10247313;28;20059;-68
2023/06/29 03:46:42;;;;;;;4.30;2.08;;;;;;;18.39;59.93;100310.66;10247558;28;20043;-69
2023/06/29 03:51:43;;;;;;;5.60;2.38;;;;;;;18.41;59.93;100313.97;10243288;28;20062;-67
2023/06/29 03:56:45;;;;;;;4.30;2.30;;;;;;;18.42;59.82;100307.47;10247347;28;20050;-66
2023/06/29 04:01:46;;;;;;;3.17;1.98;;;;;;;18.39;59.97;100305.19;10230024;28;20047;-67
2023/06/29 04:06:48;;;;;;;5.90;2.97;;;;;;;18.41;60.14;100308.53;10244596;28;20057;-67
2023/06/29 04:11:49;;;;;;;5.68;1.95;;;;;;;18.47;60.22;100305.97;10239605;28;20141;-67
2023/06/29 04:16:51;;;;;;;3.17;2.08;;;;;;;18.56;60.09;100297.25;10243077;28;20541;-67
2023/06/29 04:21:52;;;;;;;3.58;1.88;;;;;;;18.70;59.84;100295.16;10241079;28;20532;-67
2023/06/29 04:26:54;;;;;;;5.90;2.25;;;;;;;18.77;59.90;100298.63;10244172;28;20898;-67
2023/06/29 04:31:56;;;;;;;6.45;2.72;;;;;;;18.91;59.57;100293.00;10246334;28;20063;-68
2023/06/29 04:37:02;;;;;;;3.00;1.65;;;;;;;19.09;59.45;100292.94;10241559;28;20059;-66
2023/06/29 04:42:05;;;;;;;4.50;2.53;;;;;;;19.22;59.57;100284.56;10241221;28;20145;-67
2023/06/29 04:47:06;;;;;;;3.92;1.70;;;;;;;19.41;59.39;100281.72;10241709;28;20070;-66
2023/06/29 04:52:11;;;;;;;3.63;1.40;;;;;;;19.59;59.14;100280.78;10239297;28;20051;-66
2023/06/29 04:57:12;;;;;;;5.93;2.20;;;;;;;19.68;59.28;100286.72;10238721;28;20062;-67
2023/06/29 05:02:13;;;;;;;3.28;1.88;;;;;;;19.79;59.11;100286.75;10242226;28;20054;-67
2023/06/29 05:07:15;;;;;;;5.85;2.10;;;;;;;19.90;59.00;100279.59;10242653;28;20043;-67
2023/06/29 05:12:17;;;;;;;2.33;1.60;;;;;;;20.04;58.90;100279.34;10249642;28;20553;-67
2023/06/29 05:17:18;;;;;;;7.53;2.40;;;;;;;20.16;58.24;100272.81;10224505;28;20533;-66
2023/06/29 05:22:20;;;;;;;3.55;2.15;;;;;;;20.31;57.96;100283.19;10238041;28;20714;-68
2023/06/29 05:27:21;;;;;;;7.68;2.25;;;;;;;20.45;57.76;100288.38;10237507;28;20109;-67
2023/06/29 05:32:23;;;;;;;2.67;2.00;;;;;;;20.57;57.20;100276.31;10220648;28;20062;-71
2023/06/29 05:37:24;;;;;;;4.50;2.00;;;;;;;20.65;57.57;100282.50;10241194;28;20066;-72
2023/06/29 05:42:26;;;;;;;4.40;1.85;;;;;;;20.85;57.01;100279.31;10245734;28;20132;-69
2023/06/29 05:47:27;;;;;;;5.25;1.77;;;;;;;21.00;56.75;100266.75;10236695;28;20059;-70
2023/06/29 05:52:29;;;;;;;4.13;2.00;;;;;;;21.21;56.41;100258.91;10244250;28;20510;-68
2023/06/29 05:57:30;;;;;;;5.50;2.15;;;;;;;21.38;56.20;100264.34;10221452;28;20049;-71
2023/06/29 06:02:31;;;;;;;2.20;1.80;;;;;;;21.52;55.87;100253.91;10241053;28;20047;-67
2023/06/29 06:07:34;;;;;;;6.30;2.22;;;;;;;21.57;55.78;100263.03;10242637;28;20055;-72
2023/06/29 06:12:35;;;;;;;5.10;1.83;;;;;;;21.75;55.14;100250.16;10248653;28;20051;-70
2023/06/29 06:17:37;;;;;;;2.85;1.67;;;;;;;21.96;54.80;100259.47;10248969;28;20051;-70
2023/06/29 06:22:39;;;;;;;2.75;1.60;;;;;;;22.18;54.14;100256.75;10229300;28;20073;-66
2023/06/29 06:27:41;;;;;;;6.05;2.95;;;;;;;22.38;53.75;100258.91;10248397;28;20073;-67
2023/06/29 06:32:44;;;;;;;7.47;1.85;;;;;;;22.52;53.28;100251.13;10243893;28;20043;-72
2023/06/29 06:37:46;;;;;;;6.15;1.63;;;;;;;22.65;52.89;100241.66;10250846;28;20102;-68
2023/06/29 06:42:47;;;;;;;3.25;1.85;;;;;;;22.67;52.99;100248.53;10257916;28;20744;-72
2023/06/29 06:47:49;;;;;;;2.47;1.83;;;;;;;22.87;52.56;100242.44;10257485;28;20154;-71
2023/06/29 06:52:50;;;;;;;4.55;1.55;;;;;;;23.08;52.10;100248.09;10254588;28;20051;-68
2023/06/29 06:57:52;;;;;;;3.30;1.70;;;;;;;23.08;51.66;100242.63;10231970;28;20044;-66
2023/06/29 07:02:53;;;;;;;3.20;1.63;;;;;;;23.29;51.51;100246.34;10243131;28;20074;-71
2023/06/29 07:07:55;;;;;;;4.50;1.20;;;;;;;23.42;51.14;100237.69;10246129;28;20126;-70
2023/06/29 07:12:57;;;;;;;5.53;1.35;;;;;;;23.51;50.81;100238.00;10225679;28;20059;-71
2023/06/29 07:17:58;;;;;;;2.75;0.95;;;;;;;23.72;50.67;100238.97;10227517;28;20051;-73
2023/06/29 07:23:00;;;;;;;3.88;1.40;;;;;;;24.10;49.86;100234.22;10243374;28;20054;-62
2023/06/29 07:28:04;;;;;;;2.00;0.82;;;;;;;24.32;49.19;100225.75;10248598;28;20067;-61
2023/06/29 07:33:05;;;;;;;1.38;0.82;;;;;;;24.54;48.03;100223.63;10225607;28;20402;-61
2023/06/29 07:38:07;;;;;;;2.88;0.73;;;;;;;24.73;48.18;100206.63;10230819;28;20067;-60
2023/06/29 07:43:08;;;;;;;10.02;2.08;;;;;;;25.03;48.27;100203.06;10245215;28;20507;-61
2023/06/29 07:48:10;;;;;;;1.65;0.80;;;;;;;25.39;46.58;100204.97;10242273;28;20066;-60
2023/06/29 07:53:11;;;;;;;5.32;1.10;;;;;;;25.57;46.25;100198.03;10226111;28;20048;-61
2023/06/29 07:58:13;;;;;;;4.68;0.70;;;;;;;25.73;46.06;100196.88;10235786;28;20079;-60
2023/06/29 08:03:17;;;;;;;1.58;0.70;;;;;;;25.80;45.48;100200.16;10245227;28;20070;-60
2023/06/29 08:08:20;;;;;;;4.45;1.35;;;;;;;25.78;45.14;100196.88;10247161;28;20062;-61
2023/06/29 08:13:23;;;;;;;2.53;0.60;;;;;;;25.94;44.40;100210.63;10246220;28;20051;-60
2023/06/29 08:18:24;;;;;;;1.70;1.50;;;;;;;26.10;44.02;100204.72;10246651;28;20051;-61
2023/06/29 08:23:26;;;;;;;2.63;0.80;;;;;;;26.19;43.65;100199.47;10245108;28;20200;-60
2023/06/29 08:28:27;;;;;;;3.92;0.70;;;;;;;26.44;42.93;100198.50;10242477;28;20082;-60
2023/06/29 08:33:29;;;;;;;4.38;0.60;;;;;;;26.80;42.75;100197.44;10240677;28;20059;-62
2023/06/29 08:38:31;;;;;;;3.10;0.60;;;;;;;26.90;41.98;100189.91;10245093;28;20077;-61
2023/06/29 08:43:32;;;;;;;4.13;0.80;;;;;;;27.22;41.51;100188.50;10245339;28;20054;-61
2023/06/29 08:48:34;;;;;;;2.38;0.70;;;;;;;27.45;40.94;100184.16;10239888;28;20106;-63
2023/06/29 08:53:39;;;;;;;2.47;0.60;;;;;;;27.36;40.52;100183.13;10242815;28;20483;-61
2023/06/29 08:58:42;;;;;;;1.38;0.55;;;;;;;27.54;40.54;100169.69;10245047;28;20053;-61
2023/06/29 09:03:44;;;;;;;2.85;0.60;;;;;;;27.81;39.90;100175.44;10221725;28;20552;-60
2023/06/29 09:08:46;;;;;;;1.77;0.55;;;;;;;28.00;39.50;100172.75;10236312;28;20070;-61
2023/06/29 09:13:49;;;;;;;3.72;0.75;;;;;;;27.80;39.26;100161.91;10242316;28;20571;-60
2023/06/29 09:18:54;;;;;;;1.80;0.70;;;;;;;27.97;39.09;100161.47;10242433;28;20522;-60
2023/06/29 09:23:57;;;;;;;2.78;1.00;;;;;;;28.00;38.92;100152.56;10241949;28;20136;-61
2023/06/29 09:29:03;;;;;;;3.20;1.00;;;;;;;28.29;37.90;100155.19;10243025;28;20118;-60
2023/06/29 09:34:20;;;;;;;3.15;1.90;;;;;;;28.42;37.45;100139.81;10240188;28;20055;-63
2023/06/29 09:39:22;;;;;;;3.83;1.80;;;;;;;28.33;37.75;100141.59;10233429;28;20051;-64
2023/06/29 09:44:25;;;;;;;4.47;2.35;;;;;;;28.51;37.35;100142.72;10226802;28;20051;-64
2023/06/29 09:49:27;;;;;;;5.45;2.40;;;;;;;29.06;35.74;100142.88;10250656;28;20566;-64
2023/06/29 09:54:33;;;;;;;5.93;3.30;;;;;;;29.44;34.67;100140.81;10232152;28;20058;-65
2023/06/29 09:59:35;;;;;;;3.50;2.03;;;;;;;29.81;34.68;100138.13;10251705;28;20545;-65
2023/06/29 10:04:39;;;;;;;3.47;2.53;;;;;;;30.23;33.94;100130.50;10252108;28;20043;-65
2023/06/29 10:09:45;;;;;;;4.57;1.65;;;;;;;30.39;33.43;100125.44;10236128;28;20447;-65
2023/06/29 10:14:49;;;;;;;4.95;1.92;;;;;;;30.66;33.30;100113.41;10249114;28;20062;-65
2023/06/29 10:19:53;;;;;;;3.78;1.60;;;;;;;30.87;32.23;100105.38;10245005;28;20078;-65
2023/06/29 10:24:58;;;;;;;2.28;1.20;;;;;;;30.68;32.21;100111.13;10248659;28;20071;-64
2023/06/29 10:30:04;;;;;;;2.80;1.23;;;;;;;30.56;32.70;100111.72;10221193;28;20066;-64
2023/06/29 10:35:11;;;;;;;1.88;1.00;;;;;;;30.39;32.17;100106.03;10244872;28;20082;-64
2023/06/29 10:40:15;;;;;;;2.35;0.98;;;;;;;30.79;30.97;100089.50;10244413;28;20055;-64
2023/06/29 10:45:16;;;;;;;2.13;1.00;;;;;;;30.69;31.82;100101.69;10242222;28;20050;-65
2023/06/29 10:50:20;;;;;;;2.63;1.00;;;;;;;30.87;31.30;100088.72;10242455;28;20059;-66
2023/06/29 10:55:23;;;;;;;1.95;0.85;;;;;;;31.30;30.65;100079.78;10243620;28;20138;-65
2023/06/29 11:00:26;;;;;;;2.15;0.77;;;;;;;31.14;31.01;100076.63;10241821;28;20518;-64
2023/06/29 11:05:28;;;;;;;0.93;0.80;;;;;;;30.88;31.25;100084.78;10245091;28;20146;-64
2023/06/29 11:10:30;;;;;;;3.85;1.58;;;;;;;30.87;31.26;100080.41;10229043;28;20063;-66
2023/06/29 11:15:32;;;;;;;3.38;1.55;;;;;;;30.81;30.92;100082.47;10250601;28;20089;-65
2023/06/29 11:20:38;;;;;;;3.70;0.77;;;;;;;30.37;31.47;100091.66;10247634;28;20047;-65
2023/06/29 11:25:40;;;;;;;2.33;0.82;;;;;;;29.94;31.64;100086.56;10248518;28;20067;-66
2023/06/29 11:30:41;;;;;;;2.65;0.95;;;;;;;29.83;32.39;100084.03;10226831;28;20060;-65
2023/06/29 11:35:44;;;;;;;1.95;0.70;;;;;;;29.53;33.17;100077.19;10242143;28;20051;-66
2023/06/29 11:40:45;;;;;;;2.63;0.70;;;;;;;28.90;34.45;100078.69;10248983;28;20055;-65
2023/06/29 11:45:47;;;;;;;1.73;0.80;;;;;;;28.52;35.01;100076.06;10250786;28;20062;-65
2023/06/29 11:50:50;;;;;;;1.10;0.73;;;;;;;28.34;35.36;100077.72;10243786;28;20039;-63
2023/06/29 11:55:54;;;;;;;2.95;0.80;;;;;;;28.11;36.26;100073.09;10234801;28;20158;-62
2023/06/29 12:00:56;;;;;;;1.17;0.68;;;;;;;27.98;36.60;100072.75;10242582;28;20061;-62
2023/06/29 12:06:00;;;;;;;2.40;0.90;;;;;;;27.62;37.95;100070.44;10239764;28;20051;-62
2023/06/29 12:11:03;;;;;;;2.10;0.80;;;;;;;27.30;39.01;100071.13;10243453;28;20109;-64
2023/06/29 12:16:05;;;;;;;1.08;0.60;;;;;;;27.08;39.92;100068.88;10243437;28;20422;-60
2023/06/29 12:21:10;;;;;;;1.98;0.70;;;;;;;27.12;39.46;100067.19;10228845;28;20055;-62
2023/06/29 12:26:12;;;;;;;3.33;0.70;;;;;;;26.99;40.13;100067.88;10243962;28;20050;-61
2023/06/29 12:31:13;;;;;;;1.35;0.70;;;;;;;27.09;39.52;100067.75;10246452;28;20051;-67
2023/06/29 12:36:15;;;;;;;1.73;0.70;;;;;;;27.02;39.75;100068.13;10246548;28;20534;-67
2023/06/29 12:41:17;;;;;;;2.45;0.73;;;;;;;27.08;40.26;100066.13;10223000;28;20058;-66
2023/06/29 12:46:19;;;;;;;2.15;0.77;;;;;;;26.93;41.38;100074.56;10241103;28;20141;-61
2023/06/29 12:51:20;;;;;;;3.30;1.13;;;;;;;26.00;44.44;100086.34;10246021;28;20089;-62
2023/06/29 12:56:22;;;;;;;3.97;0.90;;;;;;;25.10;48.65;100093.56;10243474;28;20146;-58
2023/06/29 13:01:24;;;;;;;3.60;1.20;;;;;;;24.78;51.31;100098.56;10240353;28;20122;-58
2023/06/29 13:06:26;;;;;;;2.17;0.80;;;;;;;24.62;52.24;100089.53;10241641;28;20074;-58
2023/06/29 13:11:27;;;;;;;4.45;1.50;;;;;;;24.85;52.04;100082.63;10243627;28;20561;-59
2023/06/29 13:16:30;;;;;;;2.05;1.23;;;;;;;24.99;52.18;100083.69;10240618;28;20542;-57
2023/06/29 13:21:35;;;;;;;4.60;0.85;;;;;;;25.25;52.33;100081.72;10237643;28;20671;-58
2023/06/29 13:26:36;;;;;;;1.52;0.88;;;;;;;24.89;53.23;100080.97;10244011;28;20059;-59
2023/06/29 13:31:38;;;;;;;2.72;0.90;;;;;;;25.10;52.33;100077.06;10241450;28;20047;-59
2023/06/29 13:36:39;;;;;;;2.35;1.00;;;;;;;25.45;51.18;100072.56;10239007;28;20051;-58
2023/06/29 13:41:43;;;;;;;1.70;1.15;;;;;;;25.98;50.15;100063.75;10238034;28;20043;-58
2023/06/29 13:46:46;;;;;;;3.13;1.15;;;;;;;26.26;49.99;100056.69;10247593;28;20561;-57
2023/06/29 13:51:47;;;;;;;2.83;1.10;;;;;;;26.60;48.45;100063.28;10241628;28;20054;-57
2023/06/29 13:56:50;;;;;;;2.30;1.52;;;;;;;26.96;48.08;100051.91;10239508;28;20054;-59
2023/06/29 14:01:52;;;;;;;3.40;1.05;;;;;;;27.04;47.17;100052.09;10241730;28;20054;-58
2023/06/29 14:06:54;;;;;;;4.57;1.20;;;;;;;27.23;46.21;100046.63;10238158;28;20154;-58
2023/06/29 14:11:57;;;;;;;1.75;1.00;;;;;;;27.42;46.15;100043.91;10241043;28;20570;-60
2023/06/29 14:16:59;;;;;;;3.30;0.75;;;;;;;27.81;44.91;100037.31;10236783;28;20051;-60
2023/06/29 14:22:01;;;;;;;2.95;0.90;;;;;;;28.18;44.29;100032.06;10245243;28;20067;-59
2023/06/29 14:27:02;;;;;;;1.52;0.80;;;;;;;28.37;43.10;100029.28;10241058;28;20071;-59
2023/06/29 14:32:04;;;;;;;1.88;1.00;;;;;;;28.58;42.38;100025.06;10242048;28;20062;-59
2023/06/29 14:37:06;;;;;;;1.80;0.73;;;;;;;28.61;42.02;100020.84;10230833;28;20088;-59
2023/06/29 14:42:08;;;;;;;1.42;1.02;;;;;;;28.57;42.03;100015.09;10245103;28;20043;-58
2023/06/29 14:47:09;;;;;;;2.13;1.05;;;;;;;28.76;40.99;100003.97;10247660;28;20047;-58
2023/06/29 14:52:11;;;;;;;2.25;1.10;;;;;;;29.01;40.13;100008.19;10248262;28;20047;-59
2023/06/29 14:57:12;;;;;;;2.33;0.88;;;;;;;28.99;40.22;99995.75;10245806;28;20058;-62
2023/06/29 15:02:15;;;;;;;4.10;0.98;;;;;;;29.20;40.26;99985.13;10244935;28;20047;-62
2023/06/29 15:07:16;;;;;;;1.88;0.90;;;;;;;29.39;40.00;99987.75;10245531;28;20048;-60
2023/06/29 15:12:18;;;;;;;2.08;1.00;;;;;;;29.53;39.72;99982.19;10209496;28;20608;-62
2023/06/29 15:17:20;;;;;;;3.10;1.17;;;;;;;29.81;38.72;99980.97;10255730;28;20039;-65
2023/06/29 15:22:23;;;;;;;2.92;1.30;;;;;;;30.14;38.33;99966.06;10244512;28;20059;-66
2023/06/29 15:27:25;;;;;;;2.10;1.20;;;;;;;30.35;37.91;99964.41;10243098;28;20086;-66
2023/06/29 15:32:27;;;;;;;3.17;1.35;;;;;;;30.47;37.61;99961.06;10235440;28;20156;-64
2023/06/29 15:37:30;;;;;;;3.03;1.40;;;;;;;30.51;37.78;99961.19;10248200;28;20091;-65
2023/06/29 15:42:32;;;;;;;3.47;1.48;;;;;;;30.56;37.83;99961.06;10247190;28;20051;-68
2023/06/29 15:47:33;;;;;;;3.60;1.48;;;;;;;30.59;37.06;99952.09;10243036;28;20062;-66
2023/06/29 15:52:37;;;;;;;2.10;1.38;;;;;;;30.55;36.90;99945.56;10246591;28;20545;-67
2023/06/29 15:57:42;;;;;;;2.33;1.50;;;;;;;30.29;37.16;99950.94;10245107;28;20123;-65
2023/06/29 16:02:44;;;;;;;3.53;1.30;;;;;;;30.10;37.76;99951.19;10245309;28;20216;-66
2023/06/29 16:07:46;;;;;;;3.17;1.42;;;;;;;30.04;37.94;99947.72;10251835;28;20508;-67
2023/06/29 16:12:47;;;;;;;2.63;1.63;;;;;;;29.96;37.46;99945.72;10278371;28;20107;-65
2023/06/29 16:17:49;;;;;;;2.80;1.48;;;;;;;29.86;37.33;99938.47;10240574;28;20063;-65
2023/06/29 16:22:50;;;;;;;2.47;1.42;;;;;;;29.78;37.54;99942.81;10227058;28;20047;-66
2023/06/29 16:27:53;;;;;;;2.47;1.67;;;;;;;29.69;38.29;99944.66;10268487;28;20051;-62
2023/06/29 16:32:54;;;;;;;4.43;1.50;;;;;;;29.86;37.72;99935.72;10265540;28;20058;-63
2023/06/29 16:37:56;;;;;;;2.40;1.40;;;;;;;30.20;38.06;99935.09;10292533;28;20055;-64
2023/06/29 16:42:57;;;;;;;3.17;1.80;;;;;;;30.62;37.06;99924.53;10276070;28;20040;-63
2023/06/29 16:47:59;;;;;;;4.10;2.00;;;;;;;31.31;35.84;99923.06;10287512;28;20107;-63
2023/06/29 16:53:00;;;;;;;4.68;1.90;;;;;;;31.33;35.83;99919.97;10284647;28;20059;-64
2023/06/29 16:58:02;;;;;;;2.03;1.42;;;;;;;31.17;35.69;99919.63;10277360;28;20047;-63
2023/06/29 17:03:04;;;;;;;3.13;1.48;;;;;;;31.35;35.09;99926.84;10282829;28;20070;-63
2023/06/29 17:08:05;;;;;;;4.65;1.98;;;;;;;31.38;35.46;99917.84;10289097;28;20062;-64
2023/06/29 17:13:07;;;;;;;3.92;1.70;;;;;;;31.36;35.80;99917.38;10281795;28;20074;-65
2023/06/29 17:18:08;;;;;;;2.28;1.52;;;;;;;31.49;35.54;99909.22;10278900;28;20054;-64
2023/06/29 17:23:10;;;;;;;4.28;1.95;;;;;;;31.42;35.17;99920.81;10281993;28;20492;-64
2023/06/29 17:28:12;;;;;;;2.83;1.52;;;;;;;31.30;35.17;99912.28;10285241;28;20047;-63
2023/06/29 17:33:14;;;;;;;2.25;1.50;;;;;;;31.24;35.27;99911.63;10280091;28;20050;-62
2023/06/29 17:38:15;;;;;;;4.10;1.80;;;;;;;31.08;35.64;99914.06;10267316;28;20043;-63
2023/06/29 17:43:17;;;;;;;3.00;1.90;;;;;;;30.82;35.66;99917.56;10267939;28;20137;-67
2023/06/29 17:48:18;;;;;;;3.47;1.92;;;;;;;30.60;36.43;99915.72;10255182;28;20812;-66
2023/06/29 17:53:20;;;;;;;2.67;1.70;;;;;;;30.46;36.97;99916.97;10243604;28;20043;-66
2023/06/29 17:58:21;;;;;;;3.45;2.30;;;;;;;30.22;36.76;99921.72;10244606;28;20554;-67
2023/06/29 18:03:22;;;;;;;4.45;2.17;;;;;;;30.05;36.81;99921.63;10247274;28;20058;-65
2023/06/29 18:08:24;;;;;;;5.22;2.13;;;;;;;29.84;37.18;99918.56;10246069;28;20099;-66
2023/06/29 18:13:26;;;;;;;3.70;2.53;;;;;;;29.61;37.76;99920.50;10247899;28;20050;-68
2023/06/29 18:18:28;;;;;;;5.68;2.28;;;;;;;29.45;38.06;99914.50;10248155;28;20039;-67
2023/06/29 18:23:30;;;;;;;4.80;2.90;;;;;;;29.24;38.50;99909.41;10255746;28;20059;-67
2023/06/29 18:28:32;;;;;;;5.20;2.80;;;;;;;29.05;38.71;99909.56;10257920;28;20047;-66
2023/06/29 18:33:34;;;;;;;4.18;2.55;;;;;;;28.86;38.89;99914.41;10250804;28;20081;-65
2023/06/29 18:38:35;;;;;;;5.38;2.78;;;;;;;28.67;39.23;99908.97;10253569;28;20051;-66
2023/06/29 18:43:36;;;;;;;6.05;2.70;;;;;;;28.47;39.73;99924.00;10252424;28;20055;-66
2023/06/29 18:48:38;;;;;;;3.78;2.40;;;;;;;28.30;40.08;99919.09;10244952;28;20046;-65
2023/06/29 18:53:39;;;;;;;6.10;3.30;;;;;;;28.13;40.59;99905.03;10245405;28;20048;-68
2023/06/29 18:58:41;;;;;;;6.07;3.15;;;;;;;27.97;41.67;99912.78;10252960;28;20047;-65
2023/06/29 19:03:43;;;;;;;6.53;3.33;;;;;;;27.80;41.63;99911.34;10252496;28;20471;-66
2023/06/29 19:08:45;;;;;;;5.35;3.08;;;;;;;27.64;42.71;99907.19;10251253;28;20721;-65
2023/06/29 19:13:46;;;;;;;6.45;3.05;;;;;;;27.47;43.71;99910.53;10252521;28;20055;-65
2023/06/29 19:18:48;;;;;;;7.85;3.00;;;;;;;27.28;43.99;99914.09;10249964;28;20044;-67
2023/06/29 19:23:49;;;;;;;4.60;2.70;;;;;;;27.06;44.05;99920.16;10244839;28;20122;-66
2023/06/29 19:28:51;;;;;;;6.50;3.17;;;;;;;26.88;44.50;99918.22;10248669;28;20047;-67
2023/06/29 19:33:52;;;;;;;4.97;3.13;;;;;;;26.70;45.00;99920.63;10244076;28;20054;-67
2023/06/29 19:38:54;;;;;;;6.78;4.10;;;;;;;26.54;45.40;99921.91;10228098;28;20057;-66
2023/06/29 19:43:55;;;;;;;8.98;4.47;;;;;;;26.34;46.17;99922.94;10252106;28;20157;-66
2023/06/29 19:48:57;;;;;;;6.38;4.05;;;;;;;26.16;46.62;99927.25;10249927;28;20055;-66
2023/06/29 19:53:58;;;;;;;8.00;3.60;;;;;;;25.97;47.79;99927.16;10241033;28;20059;-66
2023/06/29 19:59:00;;;;;;;7.30;3.90;;;;;;;25.81;47.79;99934.69;10244309;28;20051;-65
2023/06/29 20:04:01;;;;;;;8.82;4.00;;;;;;;25.56;48.27;99934.91;10242884;28;20055;-68
2023/06/29 20:09:03;;;;;;;6.88;4.07;;;;;;;25.26;48.42;99934.78;10247754;28;20436;-67
2023/06/29 20:14:04;;;;;;;7.32;3.92;;;;;;;25.12;48.99;99937.31;10245952;28;20058;-65
2023/06/29 20:19:06;;;;;;;8.98;4.43;;;;;;;25.02;48.92;99942.88;10235623;28;20063;-65
2023/06/29 20:24:08;;;;;;;7.60;3.63;;;;;;;24.87;49.29;99942.94;10236414;28;20142;-64
2023/06/29 20:29:09;;;;;;;9.85;3.83;;;;;;;24.71;50.05;99936.69;10223356;28;20055;-63
2023/06/29 20:34:13;;;;;;;10.25;5.05;;;;;;;24.56;49.64;99932.03;10238948;28;20055;-64
2023/06/29 20:39:15;;;;;;;12.98;6.45;;;;;;;24.38;50.09;99946.34;10239597;28;20090;-64
2023/06/29 20:44:17;;;;;;;8.85;4.63;;;;;;;24.20;50.13;99936.75;10225160;28;20050;-63
2023/06/29 20:49:18;;;;;;;8.45;4.97;;;;;;;24.08;50.54;99937.06;10241847;28;20321;-68
2023/06/29 20:54:20;;;;;;;6.50;4.63;;;;;;;23.86;51.15;99931.84;10207051;28;20051;-65
2023/06/29 20:59:21;;;;;;;9.73;4.15;;;;;;;23.68;51.24;99925.78;10210028;28;20130;-64
2023/06/29 21:04:23;;;;;;;7.00;4.45;;;;;;;23.62;51.14;99926.03;10239531;28;20058;-59
2023/06/29 21:09:25;;;;;;;11.65;5.05;;;;;;;23.46;51.40;99928.78;10240393;28;20047;-60
2023/06/29 21:14:26;;;;;;;10.25;5.10;;;;;;;23.39;51.57;99930.13;10233232;28;20063;-60
2023/06/29 21:19:28;;;;;;;11.07;5.25;;;;;;;23.29;51.59;99928.19;10238883;28;20165;-60
2023/06/29 21:24:30;;;;;;;12.85;5.57;;;;;;;23.11;52.20;99922.09;10243432;28;20438;-60
2023/06/29 21:29:34;;;;;;;8.48;5.13;;;;;;;23.02;52.52;99928.34;10227829;28;20512;-60
2023/06/29 21:34:43;;;;;;;9.77;4.60;;;;;;;22.92;52.64;99932.69;10213359;28;20051;-60
2023/06/29 21:39:45;;;;;;;12.80;5.10;;;;;;;22.80;53.25;99937.56;10241479;28;20047;-59
2023/06/29 21:44:46;;;;;;;10.27;4.90;;;;;;;22.73;52.96;99926.88;10248462;28;20047;-59
2023/06/29 21:49:48;;;;;;;8.48;4.85;;;;;;;22.63;53.05;99915.03;10249379;28;20466;-59
2023/06/29 21:54:49;;;;;;;9.15;4.63;;;;;;;22.55;53.41;99914.47;10247808;28;20051;-59
2023/06/29 21:59:51;;;;;;;8.65;4.65;;;;;;;22.41;53.93;99906.97;10253100;28;20054;-59
2023/06/29 22:04:52;;;;;;;10.75;4.80;;;;;;;22.23;54.34;99922.72;10251909;28;20526;-59
2023/06/29 22:09:53;;;;;;;8.43;4.30;;;;;;;22.23;54.09;99911.75;10249634;28;20379;-58
2023/06/29 22:14:55;;;;;;;8.65;5.20;;;;;;;22.23;54.52;99910.94;10251343;28;20074;-58
2023/06/29 22:20:14;;;;;;;10.07;4.90;;;;;;;22.15;54.92;99915.81;10249393;28;20667;-59
2023/06/29 22:25:16;;;;;;;7.43;3.78;;;;;;;22.05;55.01;99909.44;10242152;28;20047;-58
2023/06/29 22:30:17;;;;;;;10.35;4.60;;;;;;;21.94;55.51;99912.13;10248582;28;20666;-59
2023/06/29 22:35:19;;;;;;;9.30;4.50;;;;;;;21.87;55.67;99906.03;10247348;28;20046;-59
2023/06/29 22:40:20;;;;;;;9.85;5.50;;;;;;;21.79;55.67;99893.66;10248538;28;20399;-59
2023/06/29 22:45:22;;;;;;;12.07;4.78;;;;;;;21.62;55.91;99908.56;10251946;28;20719;-58
2023/06/29 22:50:24;;;;;;;8.70;4.82;;;;;;;21.61;56.33;99901.44;10246706;28;20051;-59
2023/06/29 22:55:25;;;;;;;10.82;4.80;;;;;;;21.37;56.97;99909.94;10246450;28;20047;-59
2023/06/29 23:00:27;;;;;;;7.60;4.63;;;;;;;21.36;56.92;99909.09;10252616;28;20437;-60
2023/06/29 23:05:28;;;;;;;8.30;4.78;;;;;;;21.28;56.62;99906.84;10246649;28;20071;-59
2023/06/29 23:10:30;;;;;;;8.35;4.85;;;;;;;21.22;57.29;99898.84;10246067;28;20047;-59
2023/06/29 23:15:39;;;;;;;10.07;4.68;;;;;;;21.20;57.33;99897.19;10243244;28;20050;-60